createdAt,value
2019-06-08T00:00:02.257Z,99850.81
2019-06-08T00:02:10.464Z,99857.52
2019-06-08T00:04:16.867Z,99858.52
2019-06-08T00:06:23.495Z,99855.38
2019-06-08T00:08:29.906Z,99860.31
2019-06-08T00:10:36.516Z,99862.66
2019-06-08T00:12:42.936Z,99865.41
2019-06-08T00:14:49.428Z,99864.98
2019-06-08T00:16:55.888Z,99862.35
2019-06-08T00:19:02.378Z,99871.22
2019-06-08T00:21:08.794Z,99865.79
2019-06-08T00:23:15.723Z,99870.65
2019-06-08T00:25:22.559Z,99866.21
2019-06-08T00:27:30.237Z,99871.14
2019-06-08T00:29:36.709Z,99865.45
2019-06-08T00:31:43.104Z,99869.50
2019-06-08T00:33:49.530Z,99870.87
2019-06-08T00:35:55.979Z,99866.94
2019-06-08T00:38:02.479Z,99861.25
2019-06-08T00:40:09.757Z,99869.28
2019-06-08T00:42:17.078Z,99876.39
2019-06-08T00:44:23.664Z,99875.93
2019-06-08T00:46:30.163Z,99882.23
2019-06-08T00:48:36.645Z,99880.59
2019-06-08T00:50:43.202Z,99882.92
2019-06-08T00:52:49.621Z,99890.61
2019-06-08T00:54:56.095Z,99892.05
2019-06-08T00:57:02.534Z,99888.12
2019-06-08T00:59:08.963Z,99887.73
2019-06-08T01:01:15.361Z,99889.11
2019-06-08T01:03:21.987Z,99886.86
2019-06-08T01:05:28.409Z,99887.66
2019-06-08T01:07:34.950Z,99887.23
2019-06-08T01:09:41.424Z,99884.17
2019-06-08T01:11:47.836Z,99885.48
2019-06-08T01:13:54.360Z,99886.89
2019-06-08T01:16:00.755Z,99892.73
2019-06-08T01:18:07.360Z,99901.22
2019-06-08T01:20:14.204Z,99902.66
2019-06-08T01:22:21.614Z,99896.55
2019-06-08T01:24:28.222Z,99901.13
2019-06-08T01:26:34.637Z,99898.12
2019-06-08T01:28:41.131Z,99894.19
2019-06-08T01:30:47.730Z,99903.16
2019-06-08T01:32:54.225Z,99896.94
2019-06-08T01:35:00.630Z,99900.52
2019-06-08T01:37:07.200Z,99901.02
2019-06-08T01:39:13.598Z,99912.17
2019-06-08T01:41:21.339Z,99907.84
2019-06-08T01:43:27.824Z,99907.00
2019-06-08T01:45:34.309Z,99909.73
2019-06-08T01:47:40.739Z,99916.48
2019-06-08T01:49:47.209Z,99917.08
2019-06-08T01:51:53.804Z,99922.95
2019-06-08T01:54:00.292Z,99920.73
2019-06-08T01:56:06.720Z,99923.89
2019-06-08T01:58:13.288Z,99918.16
2019-06-08T02:00:29.887Z,99919.04
2019-06-08T02:02:29.969Z,99916.44
2019-06-08T02:04:36.460Z,99919.56
2019-06-08T02:06:42.936Z,99916.02
2019-06-08T02:08:51.235Z,99908.91
2019-06-08T02:10:57.868Z,99911.58
2019-06-08T02:13:08.282Z,99908.45
2019-06-08T02:15:14.805Z,99908.48
2019-06-08T02:17:21.190Z,99909.36
2019-06-08T02:19:28.385Z,99906.20
2019-06-08T02:21:35.006Z,99907.99
2019-06-08T02:23:41.418Z,99900.88
2019-06-08T02:25:47.968Z,99904.02
2019-06-08T02:27:54.571Z,99899.09
2019-06-08T02:30:00.966Z,99909.66
2019-06-08T02:32:07.445Z,99912.30
2019-06-08T02:34:13.868Z,99914.90
2019-06-08T02:36:20.275Z,99915.74
2019-06-08T02:38:27.585Z,99918.45
2019-06-08T02:40:35.172Z,99909.58
2019-06-08T02:42:42.521Z,99918.03
2019-06-08T02:44:48.916Z,99922.00
2019-06-08T02:46:55.458Z,99926.86
2019-06-08T02:49:04.417Z,99922.82
2019-06-08T02:51:10.507Z,99921.84
2019-06-08T02:53:18.719Z,99920.86
2019-06-08T02:55:28.702Z,99931.48
2019-06-08T02:57:39.871Z,99933.56
2019-06-08T02:59:49.992Z,99941.45
2019-06-08T03:01:59.964Z,99934.66
2019-06-08T03:04:06.797Z,99933.57
2019-06-08T03:06:15.665Z,99935.58
2019-06-08T03:08:22.782Z,99932.37
2019-06-08T03:10:32.877Z,99934.45
2019-06-08T03:12:42.508Z,99932.02
2019-06-08T03:14:53.102Z,99931.37
2019-06-08T03:16:59.634Z,99929.88
2019-06-08T03:19:20.835Z,99932.87
2019-06-08T03:21:14.491Z,99931.84
2019-06-08T03:23:21.870Z,99930.42
2019-06-08T03:25:28.292Z,99928.88
2019-06-08T03:27:35.281Z,99926.44
2019-06-08T03:29:43.961Z,99933.47
2019-06-08T03:31:55.906Z,99936.80
2019-06-08T03:33:58.734Z,99939.31
2019-06-08T03:36:05.133Z,99942.09
2019-06-08T03:38:11.655Z,99939.17
2019-06-08T03:40:18.414Z,99942.39
2019-06-08T03:42:24.846Z,99943.27
2019-06-08T03:44:31.261Z,99940.80
2019-06-08T03:46:38.837Z,99948.91
2019-06-08T03:48:46.583Z,99942.86
2019-06-08T03:50:53.107Z,99950.52
2019-06-08T03:52:59.527Z,99946.41
2019-06-08T03:55:07.740Z,99940.48
2019-06-08T03:57:14.264Z,99948.27
2019-06-08T03:59:20.763Z,99947.48
2019-06-08T04:01:27.232Z,99945.20
2019-06-08T04:03:33.725Z,99949.65
2019-06-08T04:05:42.289Z,99948.94
2019-06-08T04:07:50.469Z,99948.51
2019-06-08T04:09:57.212Z,99953.48
2019-06-08T04:12:03.810Z,99962.95
2019-06-08T04:14:10.280Z,99967.34
2019-06-08T04:16:16.725Z,99962.25
2019-06-08T04:18:23.110Z,99964.83
2019-06-08T04:20:29.503Z,99966.83
2019-06-08T04:22:42.133Z,99965.63
2019-06-08T04:24:50.429Z,99969.30
2019-06-08T04:26:56.931Z,99967.86
2019-06-08T04:29:03.344Z,99974.59
2019-06-08T04:31:09.726Z,99972.47
2019-06-08T04:33:17.881Z,99972.61
2019-06-08T04:35:24.350Z,99970.76
2019-06-08T04:37:30.737Z,99966.55
2019-06-08T04:39:38.419Z,99970.05
2019-06-08T04:41:47.191Z,99966.35
2019-06-08T04:43:54.463Z,99975.02
2019-06-08T04:46:00.724Z,99973.33
2019-06-08T04:48:09.728Z,99968.17
2019-06-08T04:50:22.593Z,99970.41
2019-06-08T04:52:23.691Z,99982.50
2019-06-08T04:54:29.956Z,99981.56
2019-06-08T04:56:36.347Z,99979.27
2019-06-08T04:58:45.992Z,99978.80
2019-06-08T05:00:51.933Z,99983.14
2019-06-08T05:02:58.398Z,99979.52
2019-06-08T05:05:08.679Z,99990.97
2019-06-08T05:07:15.088Z,99985.17
2019-06-08T05:09:21.589Z,99981.78
2019-06-08T05:11:28.013Z,99988.91
2019-06-08T05:13:34.484Z,99988.03
2019-06-08T05:15:41.418Z,99988.66
2019-06-08T05:17:49.520Z,99992.64
2019-06-08T05:19:55.477Z,99992.14
2019-06-08T05:22:01.759Z,99997.88
2019-06-08T05:24:08.185Z,99997.64
2019-06-08T05:26:14.813Z,99985.85
2019-06-08T05:28:22.360Z,99994.29
2019-06-08T05:30:28.843Z,99995.13
2019-06-08T05:32:35.342Z,99993.51
2019-06-08T05:34:41.768Z,100000.58
2019-06-08T05:36:48.190Z,100003.53
2019-06-08T05:38:55.057Z,100003.34
2019-06-08T05:41:01.491Z,100009.87
2019-06-08T05:43:07.900Z,100003.97
2019-06-08T05:45:16.022Z,100005.38
2019-06-08T05:47:21.650Z,99999.58
2019-06-08T05:49:28.060Z,100002.70
2019-06-08T05:51:34.461Z,100001.48
2019-06-08T05:53:41.653Z,100006.17
2019-06-08T05:55:48.172Z,100008.74
2019-06-08T05:57:54.573Z,100009.08
2019-06-08T06:00:08.445Z,100014.66
2019-06-08T06:02:09.263Z,100016.11
2019-06-08T06:04:15.806Z,100023.05
2019-06-08T06:06:23.172Z,100017.72
2019-06-08T06:08:29.859Z,100020.55
2019-06-08T06:10:36.348Z,100021.94
2019-06-08T06:12:43.023Z,100017.44
2019-06-08T06:14:49.549Z,100009.28
2019-06-08T06:16:55.951Z,100017.00
2019-06-08T06:19:02.444Z,100015.28
2019-06-08T06:21:11.791Z,100012.56
2019-06-08T06:23:18.639Z,100013.00
2019-06-08T06:25:25.165Z,100011.56
2019-06-08T06:27:31.617Z,100022.22
2019-06-08T06:29:38.047Z,100021.86
2019-06-08T06:31:45.781Z,100019.01
2019-06-08T06:33:52.350Z,100024.60
2019-06-08T06:35:58.812Z,100023.89
2019-06-08T06:38:05.468Z,100024.28
2019-06-08T06:40:12.097Z,100024.44
2019-06-08T06:42:18.610Z,100024.56
2019-06-08T06:44:25.299Z,100027.89
2019-06-08T06:46:31.809Z,100029.97
2019-06-08T06:48:38.259Z,100028.13
2019-06-08T06:50:44.667Z,100032.73
2019-06-08T06:52:51.148Z,100036.83
2019-06-08T06:54:57.616Z,100039.25
2019-06-08T06:57:04.038Z,100040.49
2019-06-08T06:59:11.412Z,100033.93
2019-06-08T07:01:18.099Z,100030.16
2019-06-08T07:03:25.813Z,100035.75
2019-06-08T07:05:32.367Z,100032.55
2019-06-08T07:07:38.892Z,100032.66
2019-06-08T07:09:46.447Z,100034.32
2019-06-08T07:11:56.294Z,100040.69
2019-06-08T07:14:02.614Z,100038.05
2019-06-08T07:16:18.738Z,100036.92
2019-06-08T07:18:17.286Z,100036.84
2019-06-08T07:20:23.714Z,100034.94
2019-06-08T07:22:30.136Z,100032.80
2019-06-08T07:24:36.637Z,100035.12
2019-06-08T07:26:43.168Z,100038.27
2019-06-08T07:28:51.828Z,100037.59
2019-06-08T07:30:58.831Z,100036.91
2019-06-08T07:33:04.533Z,100040.44
2019-06-08T07:35:11.231Z,100035.67
2019-06-08T07:37:17.708Z,100043.44
2019-06-08T07:39:25.827Z,100044.47
2019-06-08T07:41:32.316Z,100043.79
2019-06-08T07:43:38.830Z,100040.20
2019-06-08T07:45:45.400Z,100035.44
2019-06-08T07:47:52.062Z,100038.78
2019-06-08T07:49:59.527Z,100036.30
2019-06-08T07:52:10.089Z,100036.52
2019-06-08T07:54:14.429Z,100038.74
2019-06-08T07:56:21.037Z,100048.50
2019-06-08T07:58:27.432Z,100050.71
2019-06-08T08:00:33.945Z,100053.85
2019-06-08T08:02:40.416Z,100049.79
2019-06-08T08:04:48.319Z,100051.13
2019-06-08T08:06:54.890Z,100042.95
2019-06-08T08:09:01.284Z,100046.07
2019-06-08T08:11:09.288Z,100046.25
2019-06-08T08:13:15.771Z,100042.56
2019-06-08T08:15:22.415Z,100042.75
2019-06-08T08:17:29.038Z,100042.08
2019-06-08T08:19:36.589Z,100046.72
2019-06-08T08:21:44.403Z,100038.14
2019-06-08T08:23:51.745Z,100042.12
2019-06-08T08:26:01.742Z,100044.23
2019-06-08T08:28:08.232Z,100044.55
2019-06-08T08:30:17.305Z,100040.50
2019-06-08T08:32:23.507Z,100043.53
2019-06-08T08:34:29.930Z,100045.50
2019-06-08T08:36:38.164Z,100043.43
2019-06-08T08:38:44.639Z,100044.63
2019-06-08T08:40:52.936Z,100032.06
2019-06-08T08:43:02.957Z,100045.37
2019-06-08T08:45:10.482Z,100043.91
2019-06-08T08:47:18.701Z,100044.44
2019-06-08T08:49:25.122Z,100048.09
2019-06-08T08:51:31.592Z,100043.21
2019-06-08T08:53:38.167Z,100045.80
2019-06-08T08:55:47.940Z,100047.72
2019-06-08T08:57:54.571Z,100044.67
2019-06-08T09:00:04.766Z,100041.45
2019-06-08T09:02:11.475Z,100050.73
2019-06-08T09:04:18.647Z,100050.47
2019-06-08T09:06:27.819Z,100051.91
2019-06-08T09:08:32.673Z,100051.05
2019-06-08T09:10:39.178Z,100053.19
2019-06-08T09:12:48.375Z,100046.02
2019-06-08T09:14:54.297Z,100046.23
2019-06-08T09:17:04.344Z,100045.45
2019-06-08T09:19:11.057Z,100047.16
2019-06-08T09:21:18.681Z,100050.55
2019-06-08T09:23:28.064Z,100052.38
2019-06-08T09:25:34.705Z,100052.08
2019-06-08T09:27:42.088Z,100045.28
2019-06-08T09:29:48.510Z,100045.62
2019-06-08T09:31:55.997Z,100052.17
2019-06-08T09:34:11.011Z,100044.14
2019-06-08T09:36:13.125Z,100048.01
2019-06-08T09:38:19.653Z,100047.86
2019-06-08T09:40:31.849Z,100046.59
2019-06-08T09:42:35.923Z,100048.01
2019-06-08T09:44:43.759Z,100048.14
2019-06-08T09:46:50.190Z,100054.81
2019-06-08T09:49:03.665Z,100048.44
2019-06-08T09:51:06.384Z,100050.70
2019-06-08T09:53:23.724Z,100045.27
2019-06-08T09:55:20.384Z,100051.88
2019-06-08T09:57:28.400Z,100049.86
2019-06-08T09:59:34.975Z,100054.28
2019-06-08T10:01:41.425Z,100055.77
2019-06-08T10:03:54.180Z,100049.66
2019-06-08T10:06:05.315Z,100056.45
2019-06-08T10:08:09.610Z,100052.10
2019-06-08T10:10:18.202Z,100056.75
2019-06-08T10:12:24.858Z,100049.49
2019-06-08T10:14:31.289Z,100053.70
2019-06-08T10:16:38.276Z,100055.58
2019-06-08T10:18:45.136Z,100049.73
2019-06-08T10:20:51.404Z,100057.34
2019-06-08T10:23:01.152Z,100057.53
2019-06-08T10:25:11.271Z,100054.91
2019-06-08T10:27:19.931Z,100054.16
2019-06-08T10:29:26.565Z,100049.88
2019-06-08T10:31:39.774Z,100043.72
2019-06-08T10:33:41.246Z,100043.20
2019-06-08T10:35:48.142Z,100037.41
2019-06-08T10:37:55.742Z,100045.33
2019-06-08T10:40:05.216Z,100043.70
2019-06-08T10:42:11.599Z,100048.47
2019-06-08T10:44:18.385Z,100042.62
2019-06-08T10:46:24.971Z,100044.24
2019-06-08T10:48:31.546Z,100042.00
2019-06-08T10:50:37.951Z,100041.26
2019-06-08T10:52:44.419Z,100039.42
2019-06-08T10:54:50.924Z,100034.06
2019-06-08T10:57:00.287Z,100035.30
2019-06-08T10:59:09.496Z,100029.56
2019-06-08T11:01:14.353Z,100028.34
2019-06-08T11:03:20.970Z,100023.00
2019-06-08T11:05:28.076Z,100015.18
2019-06-08T11:07:35.025Z,100016.91
2019-06-08T11:09:41.501Z,100016.88
2019-06-08T11:11:50.340Z,100019.50
2019-06-08T11:13:58.389Z,100016.53
2019-06-08T11:16:06.260Z,100013.81
2019-06-08T11:18:13.592Z,100014.55
2019-06-08T11:20:20.443Z,100016.55
2019-06-08T11:22:28.476Z,100026.38
2019-06-08T11:24:35.033Z,100029.72
2019-06-08T11:26:41.611Z,100043.09
2019-06-08T11:28:51.107Z,100040.86
2019-06-08T11:30:56.217Z,100041.73
2019-06-08T11:33:04.100Z,100048.17
2019-06-08T11:35:12.621Z,100040.16
2019-06-08T11:37:21.130Z,100036.44
2019-06-08T11:39:28.709Z,100035.22
2019-06-08T11:41:42.565Z,100029.31
2019-06-08T11:43:44.992Z,100031.06
2019-06-08T11:45:51.406Z,100029.61
2019-06-08T11:47:58.482Z,100024.34
2019-06-08T11:50:12.578Z,100030.15
2019-06-08T11:52:18.326Z,100037.56
2019-06-08T11:54:34.281Z,100040.75
2019-06-08T11:56:32.967Z,100044.39
2019-06-08T11:58:41.006Z,100039.98
2019-06-08T12:01:03.416Z,100035.66
2019-06-08T12:03:11.526Z,100026.25
2019-06-08T12:05:18.163Z,100030.56
2019-06-08T12:07:24.611Z,100026.49
2019-06-08T12:09:31.009Z,100035.44
2019-06-08T12:11:38.268Z,100038.08
2019-06-08T12:13:46.907Z,100038.67
2019-06-08T12:15:53.137Z,100038.13
2019-06-08T12:17:59.558Z,100035.12
2019-06-08T12:20:14.038Z,100035.52
2019-06-08T12:22:17.973Z,100031.65
2019-06-08T12:24:38.506Z,100043.97
2019-06-08T12:26:32.759Z,100054.09
2019-06-08T12:28:39.236Z,100056.95
2019-06-08T12:30:47.696Z,100051.50
2019-06-08T12:32:53.863Z,100051.05
2019-06-08T12:35:00.338Z,100059.28
2019-06-08T12:37:13.398Z,100061.44
2019-06-08T12:39:19.052Z,100064.50
2019-06-08T12:41:24.755Z,100062.65
2019-06-08T12:43:31.229Z,100060.31
2019-06-08T12:45:38.157Z,100064.60
2019-06-08T12:47:45.017Z,100072.59
2019-06-08T12:49:51.423Z,100074.70
2019-06-08T12:52:00.386Z,100081.94
2019-06-08T12:54:09.960Z,100078.16
2019-06-08T12:56:23.313Z,100078.19
2019-06-08T12:58:24.874Z,100066.67
2019-06-08T13:00:31.587Z,100060.75
2019-06-08T13:02:39.132Z,100062.30
2019-06-08T13:04:50.422Z,100064.23
2019-06-08T13:06:58.426Z,100062.69
2019-06-08T13:09:10.063Z,100069.75
2019-06-08T13:11:16.502Z,100077.22
2019-06-08T13:13:24.600Z,100071.16
2019-06-08T13:15:31.295Z,100072.56
2019-06-08T13:17:38.053Z,100067.07
2019-06-08T13:19:45.043Z,100059.84
2019-06-08T13:21:51.446Z,100060.12
2019-06-08T13:23:58.224Z,100054.59
2019-06-08T13:26:05.205Z,100058.48
2019-06-08T13:28:15.155Z,100061.29
2019-06-08T13:30:25.822Z,100054.09
2019-06-08T13:32:29.822Z,100052.73
2019-06-08T13:34:38.662Z,100047.06
2019-06-08T13:36:44.629Z,100051.86
2019-06-08T13:38:51.125Z,100053.49
2019-06-08T13:40:58.945Z,100045.97
2019-06-08T13:43:07.960Z,100047.92
2019-06-08T13:45:15.595Z,100044.60
2019-06-08T13:47:23.108Z,100041.88
2019-06-08T13:49:30.783Z,100031.13
2019-06-08T13:51:38.275Z,100032.35
2019-06-08T13:53:44.909Z,100030.80
2019-06-08T13:55:56.291Z,100024.60
2019-06-08T13:57:59.635Z,100026.59
2019-06-08T14:00:09.000Z,100024.97
2019-06-08T14:02:17.890Z,100024.46
2019-06-08T14:04:23.824Z,100026.55
2019-06-08T14:06:30.634Z,100020.98
2019-06-08T14:08:38.599Z,100021.28
2019-06-08T14:10:48.243Z,100029.53
2019-06-08T14:12:58.657Z,100038.62
2019-06-08T14:15:08.715Z,100050.76
2019-06-08T14:17:19.779Z,100064.36
2019-06-08T14:19:26.116Z,100073.49
2019-06-08T14:21:40.952Z,100076.53
2019-06-08T14:23:41.462Z,100069.91
2019-06-08T14:25:56.476Z,100066.98
2019-06-08T14:27:57.587Z,100068.77
2019-06-08T14:30:08.397Z,100061.97
2019-06-08T14:32:14.992Z,100048.73
2019-06-08T14:34:23.108Z,100040.87
2019-06-08T14:36:30.473Z,100035.91
2019-06-08T14:38:41.689Z,100033.80
2019-06-08T14:40:47.497Z,100032.94
2019-06-08T14:42:53.663Z,100029.72
2019-06-08T14:45:00.139Z,100038.24
2019-06-08T14:47:16.332Z,100032.66
2019-06-08T14:49:26.798Z,100029.77
2019-06-08T14:51:49.358Z,100033.70
2019-06-08T14:53:58.139Z,100037.45
2019-06-08T14:56:08.441Z,100047.70
2019-06-08T14:58:12.279Z,100048.62
2019-06-08T15:00:25.667Z,100054.09
2019-06-08T15:02:32.279Z,100060.47
2019-06-08T15:04:40.041Z,100066.25
2019-06-08T15:06:48.784Z,100062.83
2019-06-08T15:08:54.836Z,100047.86
2019-06-08T15:11:01.315Z,100056.70
2019-06-08T15:13:08.026Z,100060.78
2019-06-08T15:15:14.924Z,100062.52
2019-06-08T15:17:21.871Z,100073.09
2019-06-08T15:19:30.377Z,100076.33
2019-06-08T15:21:38.093Z,100092.62
2019-06-08T15:23:44.803Z,100095.07
2019-06-08T15:25:52.828Z,100088.42
2019-06-08T15:28:01.334Z,100089.66
2019-06-08T15:30:08.943Z,100097.00
2019-06-08T15:32:17.692Z,100105.30
2019-06-08T15:34:25.237Z,100102.78
2019-06-08T15:36:32.606Z,100104.47
2019-06-08T15:38:39.353Z,100100.63
2019-06-08T15:40:47.753Z,100104.59
2019-06-08T15:42:53.948Z,100104.05
2019-06-08T15:45:03.048Z,100106.92
2019-06-08T15:47:09.541Z,100110.38
2019-06-08T15:49:15.957Z,100122.33
2019-06-08T15:51:22.386Z,100122.59
2019-06-08T15:53:29.665Z,100130.31
2019-06-08T15:55:38.190Z,100128.48
2019-06-08T15:57:46.098Z,100124.59
2019-06-08T15:59:52.517Z,100131.26
2019-06-08T16:01:58.920Z,100134.39
2019-06-08T16:04:05.536Z,100149.50
2019-06-08T16:06:11.973Z,100158.97
2019-06-08T16:08:18.367Z,100157.90
2019-06-08T16:10:26.177Z,100163.56
2019-06-08T16:12:33.251Z,100162.02
2019-06-08T16:14:41.495Z,100167.08
2019-06-08T16:16:48.202Z,100158.39
2019-06-08T16:18:54.691Z,100169.34
2019-06-08T16:21:01.152Z,100163.47
2019-06-08T16:23:07.646Z,100174.04
2019-06-08T16:25:14.377Z,100184.96
2019-06-08T16:27:20.828Z,100174.70
2019-06-08T16:29:27.245Z,100178.44
2019-06-08T16:31:34.979Z,100173.57
2019-06-08T16:33:44.185Z,100179.06
2019-06-08T16:35:50.292Z,100180.09
2019-06-08T16:37:56.694Z,100167.30
2019-06-08T16:40:03.885Z,100167.71
2019-06-08T16:42:10.371Z,100168.73
2019-06-08T16:44:16.905Z,100172.68
2019-06-08T16:46:23.407Z,100191.53
2019-06-08T16:48:30.084Z,100185.64
2019-06-08T16:50:36.530Z,100190.03
2019-06-08T16:52:43.078Z,100188.02
2019-06-08T16:54:50.682Z,100195.52
2019-06-08T16:57:09.543Z,100190.31
2019-06-08T16:59:05.391Z,100177.82
2019-06-08T17:01:11.872Z,100172.55
2019-06-08T17:03:18.487Z,100181.24
2019-06-08T17:05:25.016Z,100182.20
2019-06-08T17:07:32.180Z,100191.18
2019-06-08T17:09:40.209Z,100195.30
2019-06-08T17:11:46.686Z,100199.77
2019-06-08T17:13:53.165Z,100195.12
2019-06-08T17:15:59.608Z,100193.77
2019-06-08T17:18:06.092Z,100191.18
2019-06-08T17:20:13.312Z,100186.46
2019-06-08T17:22:19.797Z,100186.60
2019-06-08T17:24:26.251Z,100192.94
2019-06-08T17:26:32.695Z,100194.28
2019-06-08T17:28:39.170Z,100205.50
2019-06-08T17:30:45.658Z,100208.08
2019-06-08T17:32:52.061Z,100222.28
2019-06-08T17:34:58.522Z,100228.16
2019-06-08T17:37:05.194Z,100235.00
2019-06-08T17:39:11.740Z,100242.11
2019-06-08T17:41:18.364Z,100253.84
2019-06-08T17:43:24.914Z,100262.51
2019-06-08T17:45:32.354Z,100268.70
2019-06-08T17:47:38.895Z,100278.52
2019-06-08T17:49:45.405Z,100270.87
2019-06-08T17:51:51.851Z,100286.34
2019-06-08T17:53:58.849Z,100278.63
2019-06-08T17:56:05.336Z,100287.45
2019-06-08T17:58:11.885Z,100291.28
2019-06-08T18:00:20.342Z,100291.97
2019-06-08T18:02:29.079Z,100288.30
2019-06-08T18:04:38.400Z,100287.09
2019-06-08T18:06:47.386Z,100291.36
2019-06-08T18:08:53.953Z,100293.30
2019-06-08T18:11:00.440Z,100295.37
2019-06-08T18:13:07.416Z,100293.02
2019-06-08T18:15:17.469Z,100292.98
2019-06-08T18:17:24.267Z,100294.88
2019-06-08T18:19:34.165Z,100299.55
2019-06-08T18:21:41.990Z,100306.95
2019-06-08T18:23:48.809Z,100295.19
2019-06-08T18:25:55.273Z,100299.79
2019-06-08T18:28:09.229Z,100292.77
2019-06-08T18:30:13.124Z,100286.00
2019-06-08T18:32:20.316Z,100302.66
2019-06-08T18:34:28.553Z,100306.78
2019-06-08T18:36:38.055Z,100303.00
2019-06-08T18:38:44.295Z,100306.20
2019-06-08T18:40:51.272Z,100309.02
2019-06-08T18:42:58.648Z,100316.23
2019-06-08T18:45:09.091Z,100310.30
2019-06-08T18:47:17.806Z,100317.79
2019-06-08T18:49:28.820Z,100319.43
2019-06-08T18:51:35.141Z,100324.30
2019-06-08T18:54:01.507Z,100333.00
2019-06-08T18:55:52.273Z,100339.06
2019-06-08T18:57:58.696Z,100348.80
2019-06-08T19:00:09.156Z,100355.67
2019-06-08T19:02:17.955Z,100362.73
2019-06-08T19:04:30.036Z,100368.41
2019-06-08T19:06:34.419Z,100366.41
2019-06-08T19:08:43.486Z,100372.17
2019-06-08T19:10:51.335Z,100378.98
2019-06-08T19:13:00.009Z,100380.66
2019-06-08T19:15:11.356Z,100383.64
2019-06-08T19:17:17.456Z,100384.78
2019-06-08T19:19:24.108Z,100396.69
2019-06-08T19:21:30.702Z,100397.06
2019-06-08T19:23:40.479Z,100396.08
2019-06-08T19:25:48.357Z,100399.11
2019-06-08T19:27:54.791Z,100395.79
2019-06-08T19:30:01.210Z,100402.28
2019-06-08T19:32:07.688Z,100406.70
2019-06-08T19:34:14.129Z,100411.02
2019-06-08T19:36:20.600Z,100417.06
2019-06-08T19:38:27.902Z,100419.55
2019-06-08T19:40:34.918Z,100417.92
2019-06-08T19:42:51.063Z,100424.45
2019-06-08T19:45:01.154Z,100426.97
2019-06-08T19:47:01.534Z,100434.37
2019-06-08T19:49:09.002Z,100435.48
2019-06-08T19:51:17.098Z,100440.97
2019-06-08T19:53:23.735Z,100440.75
2019-06-08T19:55:30.165Z,100449.47
2019-06-08T19:57:39.226Z,100447.80
2019-06-08T19:59:45.868Z,100450.14
2019-06-08T20:01:56.399Z,100450.00
2019-06-08T20:04:01.689Z,100451.09
2019-06-08T20:06:08.147Z,100454.95
2019-06-08T20:08:14.577Z,100453.28
2019-06-08T20:10:21.000Z,100455.63
2019-06-08T20:12:28.124Z,100466.53
2019-06-08T20:14:37.274Z,100461.75
2019-06-08T20:16:43.009Z,100468.14
2019-06-08T20:18:51.253Z,100461.08
2019-06-08T20:20:58.612Z,100468.86
2019-06-08T20:23:09.563Z,100468.48
2019-06-08T20:25:17.743Z,100472.69
2019-06-08T20:27:24.176Z,100475.05
2019-06-08T20:32:42.772Z,100480.30
2019-06-08T20:35:09.330Z,100492.91
2019-06-08T20:37:17.522Z,100505.88
2019-06-08T20:39:23.936Z,100502.77
2019-06-08T20:41:30.371Z,100506.30
2019-06-08T20:43:38.134Z,100515.17
2019-06-08T20:45:46.655Z,100513.36
2019-06-08T20:47:53.907Z,100511.98
2019-06-08T20:50:01.769Z,100510.05
2019-06-08T20:52:09.858Z,100504.67
2019-06-08T20:54:17.240Z,100512.83
2019-06-08T20:56:24.653Z,100521.44
2019-06-08T20:58:32.645Z,100515.67
2019-06-08T21:00:39.079Z,100516.56
2019-06-08T21:02:46.451Z,100520.17
2019-06-08T21:04:55.800Z,100523.70
2019-06-08T21:07:05.261Z,100523.28
2019-06-08T21:09:11.745Z,100532.27
2019-06-08T21:11:19.367Z,100530.05
2019-06-08T21:13:27.876Z,100538.99
2019-06-08T21:15:34.387Z,100541.30
2019-06-08T21:17:40.789Z,100543.99
2019-06-08T21:19:47.208Z,100546.68
2019-06-08T21:21:55.045Z,100548.48
2019-06-08T21:24:01.865Z,100549.83
2019-06-08T21:26:08.799Z,100547.14
2019-06-08T21:28:17.150Z,100551.68
2019-06-08T21:30:24.633Z,100557.44
2019-06-08T21:32:31.434Z,100555.63
2019-06-08T21:34:38.092Z,100556.98
2019-06-08T21:36:44.578Z,100560.59
2019-06-08T21:38:53.937Z,100561.12
2019-06-08T21:41:02.521Z,100560.83
2019-06-08T21:43:08.080Z,100564.94
2019-06-08T21:45:18.907Z,100561.52
2019-06-08T21:47:27.201Z,100569.31
2019-06-08T21:49:34.970Z,100580.19
2019-06-08T21:51:42.495Z,100575.38
2019-06-08T21:53:50.080Z,100574.50
2019-06-08T21:55:58.327Z,100575.03
2019-06-08T21:58:05.098Z,100583.67
2019-06-08T22:00:29.389Z,100585.09
2019-06-08T22:02:23.690Z,100591.30
2019-06-08T22:04:32.956Z,100585.89
2019-06-08T22:06:40.568Z,100587.23
2019-06-08T22:08:48.129Z,100585.93
2019-06-08T22:10:54.918Z,100585.19
2019-06-08T22:13:02.917Z,100583.00
2019-06-08T22:15:11.305Z,100587.11
2019-06-08T22:17:18.963Z,100587.60
2019-06-08T22:19:27.415Z,100590.36
2019-06-08T22:21:33.552Z,100590.47
2019-06-08T22:23:40.133Z,100593.22
2019-06-08T22:25:47.730Z,100594.14
2019-06-08T22:27:55.967Z,100590.68
2019-06-08T22:30:09.771Z,100593.05
2019-06-08T22:32:12.270Z,100600.75
2019-06-08T22:34:18.832Z,100603.96
2019-06-08T22:36:27.470Z,100607.17
2019-06-08T22:38:37.246Z,100607.70
2019-06-08T22:40:41.730Z,100615.43
2019-06-08T22:42:48.906Z,100612.45
2019-06-08T22:44:57.710Z,100613.89
2019-06-08T22:47:04.806Z,100617.23
2019-06-08T22:49:11.346Z,100616.89
2019-06-08T22:51:18.752Z,100623.30
2019-06-08T22:53:27.610Z,100628.34
2019-06-08T22:55:33.376Z,100625.75
2019-06-08T22:57:39.787Z,100624.89
2019-06-08T22:59:47.714Z,100624.01
2019-06-08T23:01:55.724Z,100623.52
2019-06-08T23:04:04.320Z,100621.72
2019-06-08T23:06:10.721Z,100627.12
2019-06-08T23:08:18.636Z,100624.49
2019-06-08T23:10:25.044Z,100622.36
2019-06-08T23:12:31.465Z,100627.78
2019-06-08T23:14:37.858Z,100619.83
2019-06-08T23:16:44.409Z,100628.27
2019-06-08T23:18:50.836Z,100627.84
2019-06-08T23:21:01.169Z,100631.90
2019-06-08T23:23:08.565Z,100632.84
2019-06-08T23:25:13.774Z,100642.41
2019-06-08T23:27:20.179Z,100643.01
2019-06-08T23:29:27.340Z,100645.80
2019-06-08T23:31:33.893Z,100641.91
2019-06-08T23:33:41.341Z,100649.17
2019-06-08T23:36:21.688Z,100649.71
2019-06-08T23:37:56.844Z,100653.44
2019-06-08T23:40:03.923Z,100655.31
2019-06-08T23:42:10.383Z,100659.48
2019-06-08T23:44:17.630Z,100656.02
2019-06-08T23:46:24.359Z,100660.60
2019-06-08T23:48:30.783Z,100671.86
2019-06-08T23:50:38.233Z,100667.06
2019-06-08T23:52:44.718Z,100680.05
2019-06-08T23:54:52.403Z,100684.98
2019-06-08T23:57:00.100Z,100685.00
2019-06-08T23:59:09.920Z,100693.02
